Relevés horaires Koksijde (Belgique)


Relevés horaires à Koksijde - Mardi 03 Mai 2022
Heure UTC1 Température [°C] Vent [km/h] Hum. [%] Pres.4 [hPa] Visi. [Km] Nébu. [octa] Préc.5 [mm] Cond.
2m. Res. Ros. Dir.2 Vit. Moy. Raf.3
23:00 6.2 6.2 3.4 NNO 1.9 -- 3.7 82 1021(0.2/3h) 19 -- -- --
22:00 6.6 6.6 3.9 NNO 1.9 -- 3.7 83 1021(0.4/3h) 18 -- -- --
21:00 7.3 7.3 4.8 NE 3.7 -- 13.0 84 1021(0.4/3h) 18 4/8 -- --
20:00 7.7 7.7 5.6 NNE 3.7 -- 9.3 87 1020.7(0.4/3h) 18 4/8 -- --
19:00 9.3 8.8 6.1 NNE 5.6 -- 13.0 80 1020.5(0.0/3h) 18 6/8 -- --
18:00 10.8 10.1 7.2 N 7.4 -- 14.8 78 1020.5(0.0/3h) 17 7/8 -- --
17:00 11.3 10 8.0 N 11.1 -- 14.8 80 1020.3(-0.2/3h) 16 -- -- --
16:00 11.8 10.9 8.8 N 9.3 -- 14.8 82 1020.3(-0.3/3h) 15 7/8 -- --
15:00 11.7 10.5 9.4 N 11.1 -- 14.8 86 1020.3(-0.5/3h) 10 8/8 -- --
14:00 11.4 10.4 9.1 N 9.3 -- 13.0 86 1020.5(-0.8/3h) 8 8/8 -- --
13:00 11.4 10.8 8.8 N 7.4 -- 13.0 84 1020.7(-0.6/3h) 7 7/8 -- --
12:00 11.2 10.2 8.6 N 9.3 -- 13.0 84 1021(-0.4/3h) 6 7/8 -- --
11:00 11.6 10.7 8.8 N 9.3 -- 11.1 83 1021.3(0.3/3h) 8 7/8 -- --
10:00 11.2 11 8.1 N 5.6 -- 11.1 81 1021.5(0.7/3h) 8 7/8 -- --
09:00 10.6 9.8 8.5 N 7.4 -- 11.1 87 1021.3(1.0/3h) 5 7/8 -- Du brouillard ou du brouillard glacé (plus correctement designé sous le nom de brume) est observé et la visibilité n'est ni inférieure à 5/8 de mille ni supérieure à 6 milles
08:00 10.7 10 8.5 N 7.4 -- 11.1 86 1021(0.9/3h) 5 7/8 -- Du brouillard ou du brouillard glacé (plus correctement designé sous le nom de brume) est observé et la visibilité n'est ni inférieure à 5/8 de mille ni supérieure à 6 milles
07:00 11.5 11.3 7.0 N 5.6 -- 7.4 74 1020.7(0.6/3h) 14 -- -- --
06:00 10.8 10.8 7.8 NNO 1.9 -- 5.6 82 1020.3(0.2/3h) 12 7/8 -- --
05:00 10.1 10.1 6.0 NNO 1.9 -- 5.6 76 1020.1(-0.1/3h) 15 7/8 -- --
04:00 10.2 10.2 7.2 NNO 1.9 -- 5.6 82 1020(-0.2/3h) 13 -- -- --
03:00 9.6 9.6 6.8 NNE 3.7 -- 5.6 83 1020.2(-0.2/3h) 12 -- -- --
02:00 9.3 9.3 6.8 NNO 1.9 -- 3.7 84 1020.2(-0.3/3h) 12 -- -- --
01:00 7.5 7.5 6.3 NNO 1.9 -- 3.7 92 1020.2(-0.3/3h) 9 -- -- --
00:00 7.7 7.7 5.6 NNE 3.7 -- 13.0 87 1020.3(-0.1/3h) 14 -- -- --

1 Coordinated Universal Time. Actuellement il est 12:00 locale et 10:00 UTC.

2 Le vent souffle depuis la direction indiquée vers la direction oposée.

3 Les rafales max. sont disponible 40 min après l'heure du relevé.

4 Pour les stations d'altitude (plus de 600m) le géopotentiel du niveau le plus proche de la pression obligatoire est indiqué.

5 Les stations disposant d'un diffuseur peuvent indiquer "trace". Cela signifie que des précipitations ont touchés le sol mais que la quantité est inférieure à 0.1 mm.

Récapitulatif de la journée
Température [°C] Vent [km/h] Ensoleillement4 [h] Precipitations totale5 [mm] Pression [Hpa]
Min1 Max.2 Moy.3 Max. Min Max.
6.5 12.3 0 14.8 0 h 0 min 0 1020.0 1021.5

1 Température minimale relevée entre 18:00 UTC la veille et 18:00 UTC le jour donné.

2 Température maximale relevée entre 06:00 UTC le jour donné et 06:00 UTC le lendemain.

3 Vent moyen de la journée basé sur les relevés horaires.

4 Ensoleillement en heures relevé entre 06:00 UTC la veille et 06:00 UTC le jour donné.

5 Précipitations totales tombées entre 06:00 UTC la jour donné et 06:00 UTC le lendemain.

Graphiques horaires